sensor_id;sensor_type;location;lat;lon;timestamp;temperature;humidity
7360;DHT22;3720;48.274;7.796;2023-07-22T00:00:29;15.70;99.90
7360;DHT22;3720;48.274;7.796;2023-07-22T00:03:02;15.70;99.90
7360;DHT22;3720;48.274;7.796;2023-07-22T00:05:35;15.60;99.90
7360;DHT22;3720;48.274;7.796;2023-07-22T00:08:07;15.60;99.90
7360;DHT22;3720;48.274;7.796;2023-07-22T00:10:40;15.60;99.90
7360;DHT22;3720;48.274;7.796;2023-07-22T00:13:13;15.50;99.90
7360;DHT22;3720;48.274;7.796;2023-07-22T00:15:45;15.50;99.90
7360;DHT22;3720;48.274;7.796;2023-07-22T00:18:16;15.40;99.90
7360;DHT22;3720;48.274;7.796;2023-07-22T00:20:50;15.50;99.90
7360;DHT22;3720;48.274;7.796;2023-07-22T00:23:22;15.40;99.90
7360;DHT22;3720;48.274;7.796;2023-07-22T00:25:55;15.40;99.90
7360;DHT22;3720;48.274;7.796;2023-07-22T00:28:26;15.30;99.90
7360;DHT22;3720;48.274;7.796;2023-07-22T00:30:58;15.20;99.90
7360;DHT22;3720;48.274;7.796;2023-07-22T00:33:31;15.10;99.90
7360;DHT22;3720;48.274;7.796;2023-07-22T00:36:04;15.00;99.90
7360;DHT22;3720;48.274;7.796;2023-07-22T00:38:36;15.00;99.90
7360;DHT22;3720;48.274;7.796;2023-07-22T00:41:08;14.90;99.90
7360;DHT22;3720;48.274;7.796;2023-07-22T00:43:40;14.90;99.90
7360;DHT22;3720;48.274;7.796;2023-07-22T00:46:12;14.80;99.90
7360;DHT22;3720;48.274;7.796;2023-07-22T00:48:44;14.70;99.90
7360;DHT22;3720;48.274;7.796;2023-07-22T00:51:18;14.70;99.90
7360;DHT22;3720;48.274;7.796;2023-07-22T00:53:52;14.60;99.90
7360;DHT22;3720;48.274;7.796;2023-07-22T00:56:25;14.60;99.90
7360;DHT22;3720;48.274;7.796;2023-07-22T00:58:57;14.90;99.90
7360;DHT22;3720;48.274;7.796;2023-07-22T01:01:29;15.20;99.90
7360;DHT22;3720;48.274;7.796;2023-07-22T01:04:01;15.20;99.90
7360;DHT22;3720;48.274;7.796;2023-07-22T01:06:36;15.10;99.90
7360;DHT22;3720;48.274;7.796;2023-07-22T01:09:09;15.00;99.90
7360;DHT22;3720;48.274;7.796;2023-07-22T01:11:41;14.90;99.90
7360;DHT22;3720;48.274;7.796;2023-07-22T01:14:12;14.90;99.90
7360;DHT22;3720;48.274;7.796;2023-07-22T01:16:44;14.90;99.90
7360;DHT22;3720;48.274;7.796;2023-07-22T01:19:17;14.80;99.90
7360;DHT22;3720;48.274;7.796;2023-07-22T01:21:53;14.70;99.90
7360;DHT22;3720;48.274;7.796;2023-07-22T01:24:27;14.70;99.90
7360;DHT22;3720;48.274;7.796;2023-07-22T01:27:00;14.70;99.90
7360;DHT22;3720;48.274;7.796;2023-07-22T01:29:34;14.70;99.90
7360;DHT22;3720;48.274;7.796;2023-07-22T01:32:06;14.70;99.90
7360;DHT22;3720;48.274;7.796;2023-07-22T01:34:38;14.60;99.90
7360;DHT22;3720;48.274;7.796;2023-07-22T01:37:10;14.60;99.90
7360;DHT22;3720;48.274;7.796;2023-07-22T01:39:43;14.70;99.90
7360;DHT22;3720;48.274;7.796;2023-07-22T01:42:15;14.70;99.90
7360;DHT22;3720;48.274;7.796;2023-07-22T01:44:47;14.70;99.90
7360;DHT22;3720;48.274;7.796;2023-07-22T01:47:19;14.60;99.90
7360;DHT22;3720;48.274;7.796;2023-07-22T01:49:52;14.50;99.90
7360;DHT22;3720;48.274;7.796;2023-07-22T01:52:24;14.50;99.90
7360;DHT22;3720;48.274;7.796;2023-07-22T01:54:57;14.50;99.90
7360;DHT22;3720;48.274;7.796;2023-07-22T01:57:29;14.40;99.90
7360;DHT22;3720;48.274;7.796;2023-07-22T02:00:02;14.50;99.90
7360;DHT22;3720;48.274;7.796;2023-07-22T02:02:35;14.50;99.90
7360;DHT22;3720;48.274;7.796;2023-07-22T02:05:08;14.40;99.90
7360;DHT22;3720;48.274;7.796;2023-07-22T02:07:40;14.40;99.90
7360;DHT22;3720;48.274;7.796;2023-07-22T02:10:13;14.30;99.90
7360;DHT22;3720;48.274;7.796;2023-07-22T02:12:45;14.40;99.90
7360;DHT22;3720;48.274;7.796;2023-07-22T02:15:17;14.40;99.90
7360;DHT22;3720;48.274;7.796;2023-07-22T02:17:49;14.40;99.90
7360;DHT22;3720;48.274;7.796;2023-07-22T02:20:22;14.40;99.90
7360;DHT22;3720;48.274;7.796;2023-07-22T02:22:54;14.50;99.90
7360;DHT22;3720;48.274;7.796;2023-07-22T02:25:27;14.50;99.90
7360;DHT22;3720;48.274;7.796;2023-07-22T02:27:59;14.40;99.90
7360;DHT22;3720;48.274;7.796;2023-07-22T02:30:33;14.30;99.90
7360;DHT22;3720;48.274;7.796;2023-07-22T02:33:06;14.30;99.90
7360;DHT22;3720;48.274;7.796;2023-07-22T02:35:38;14.30;99.90
7360;DHT22;3720;48.274;7.796;2023-07-22T02:38:10;14.40;99.90
7360;DHT22;3720;48.274;7.796;2023-07-22T02:40:43;14.30;99.90
7360;DHT22;3720;48.274;7.796;2023-07-22T02:43:16;14.40;99.90
7360;DHT22;3720;48.274;7.796;2023-07-22T02:45:47;14.30;99.90
7360;DHT22;3720;48.274;7.796;2023-07-22T02:48:19;14.30;99.90
7360;DHT22;3720;48.274;7.796;2023-07-22T02:50:51;14.30;99.90
7360;DHT22;3720;48.274;7.796;2023-07-22T02:53:23;14.20;99.90
7360;DHT22;3720;48.274;7.796;2023-07-22T02:55:56;14.20;99.90
7360;DHT22;3720;48.274;7.796;2023-07-22T02:58:28;14.10;99.90
7360;DHT22;3720;48.274;7.796;2023-07-22T03:01:00;14.20;99.90
7360;DHT22;3720;48.274;7.796;2023-07-22T03:03:32;14.10;99.90
7360;DHT22;3720;48.274;7.796;2023-07-22T03:06:04;14.10;99.90
7360;DHT22;3720;48.274;7.796;2023-07-22T03:08:37;14.10;99.90
7360;DHT22;3720;48.274;7.796;2023-07-22T03:11:10;14.10;99.90
7360;DHT22;3720;48.274;7.796;2023-07-22T03:13:42;14.10;99.90
7360;DHT22;3720;48.274;7.796;2023-07-22T03:16:14;14.10;99.90
7360;DHT22;3720;48.274;7.796;2023-07-22T03:18:46;14.00;99.90
7360;DHT22;3720;48.274;7.796;2023-07-22T03:21:18;14.30;99.90
7360;DHT22;3720;48.274;7.796;2023-07-22T03:23:50;14.70;99.90
7360;DHT22;3720;48.274;7.796;2023-07-22T03:26:23;15.00;99.90
7360;DHT22;3720;48.274;7.796;2023-07-22T03:28:55;15.20;99.90
7360;DHT22;3720;48.274;7.796;2023-07-22T03:31:27;15.30;99.90
7360;DHT22;3720;48.274;7.796;2023-07-22T03:33:59;15.60;99.90
7360;DHT22;3720;48.274;7.796;2023-07-22T03:36:31;15.80;99.90
7360;DHT22;3720;48.274;7.796;2023-07-22T03:39:05;16.00;99.90
7360;DHT22;3720;48.274;7.796;2023-07-22T03:41:39;16.00;99.90
7360;DHT22;3720;48.274;7.796;2023-07-22T03:44:11;16.10;99.90
7360;DHT22;3720;48.274;7.796;2023-07-22T03:46:43;16.20;99.90
7360;DHT22;3720;48.274;7.796;2023-07-22T03:49:15;16.10;99.90
7360;DHT22;3720;48.274;7.796;2023-07-22T03:51:47;16.00;99.90
7360;DHT22;3720;48.274;7.796;2023-07-22T03:54:19;15.80;99.90
7360;DHT22;3720;48.274;7.796;2023-07-22T03:56:52;15.50;99.90
7360;DHT22;3720;48.274;7.796;2023-07-22T03:59:23;15.30;99.90
7360;DHT22;3720;48.274;7.796;2023-07-22T04:01:55;15.10;99.90
7360;DHT22;3720;48.274;7.796;2023-07-22T04:04:28;15.20;99.90
7360;DHT22;3720;48.274;7.796;2023-07-22T04:07:00;15.10;99.90
7360;DHT22;3720;48.274;7.796;2023-07-22T04:09:32;15.20;99.90
7360;DHT22;3720;48.274;7.796;2023-07-22T04:12:06;15.40;99.90
7360;DHT22;3720;48.274;7.796;2023-07-22T04:14:39;15.40;99.90
7360;DHT22;3720;48.274;7.796;2023-07-22T04:17:11;15.30;99.90
7360;DHT22;3720;48.274;7.796;2023-07-22T04:19:45;15.30;99.90
7360;DHT22;3720;48.274;7.796;2023-07-22T04:22:17;15.30;99.90
7360;DHT22;3720;48.274;7.796;2023-07-22T04:24:49;15.20;99.90
7360;DHT22;3720;48.274;7.796;2023-07-22T04:27:23;15.30;99.90
7360;DHT22;3720;48.274;7.796;2023-07-22T04:29:55;15.60;99.90
7360;DHT22;3720;48.274;7.796;2023-07-22T04:32:26;15.70;99.90
7360;DHT22;3720;48.274;7.796;2023-07-22T04:34:59;15.60;99.90
7360;DHT22;3720;48.274;7.796;2023-07-22T04:37:30;15.50;99.90
7360;DHT22;3720;48.274;7.796;2023-07-22T04:40:03;15.30;99.90
7360;DHT22;3720;48.274;7.796;2023-07-22T04:42:41;15.20;99.90
7360;DHT22;3720;48.274;7.796;2023-07-22T04:45:13;15.10;99.90
7360;DHT22;3720;48.274;7.796;2023-07-22T04:47:45;15.20;99.90
7360;DHT22;3720;48.274;7.796;2023-07-22T04:50:19;15.30;99.90
7360;DHT22;3720;48.274;7.796;2023-07-22T04:52:51;15.40;99.90
7360;DHT22;3720;48.274;7.796;2023-07-22T04:55:23;15.40;99.90
7360;DHT22;3720;48.274;7.796;2023-07-22T04:57:56;15.40;99.90
7360;DHT22;3720;48.274;7.796;2023-07-22T05:00:28;15.40;99.90
7360;DHT22;3720;48.274;7.796;2023-07-22T05:03:00;15.30;99.90
7360;DHT22;3720;48.274;7.796;2023-07-22T05:05:32;15.20;99.90
7360;DHT22;3720;48.274;7.796;2023-07-22T05:08:04;15.20;99.90
7360;DHT22;3720;48.274;7.796;2023-07-22T05:10:38;15.00;99.90
7360;DHT22;3720;48.274;7.796;2023-07-22T05:13:12;15.00;99.90
7360;DHT22;3720;48.274;7.796;2023-07-22T05:15:44;15.00;99.90
7360;DHT22;3720;48.274;7.796;2023-07-22T05:18:17;15.00;99.90
7360;DHT22;3720;48.274;7.796;2023-07-22T05:20:49;15.10;99.90
7360;DHT22;3720;48.274;7.796;2023-07-22T05:23:21;15.20;99.90
7360;DHT22;3720;48.274;7.796;2023-07-22T05:25:53;15.10;99.90
7360;DHT22;3720;48.274;7.796;2023-07-22T05:28:26;15.20;99.90
7360;DHT22;3720;48.274;7.796;2023-07-22T05:30:58;15.20;99.90
7360;DHT22;3720;48.274;7.796;2023-07-22T05:33:30;15.20;99.90
7360;DHT22;3720;48.274;7.796;2023-07-22T05:36:02;15.40;99.90
7360;DHT22;3720;48.274;7.796;2023-07-22T05:38:35;15.60;99.90
7360;DHT22;3720;48.274;7.796;2023-07-22T05:41:06;15.80;99.90
7360;DHT22;3720;48.274;7.796;2023-07-22T05:43:40;16.00;99.90
7360;DHT22;3720;48.274;7.796;2023-07-22T05:46:12;16.20;99.90
7360;DHT22;3720;48.274;7.796;2023-07-22T05:48:44;16.40;99.90
7360;DHT22;3720;48.274;7.796;2023-07-22T05:51:17;16.50;99.90
7360;DHT22;3720;48.274;7.796;2023-07-22T05:53:49;16.60;99.90
7360;DHT22;3720;48.274;7.796;2023-07-22T05:56:21;16.60;99.90
7360;DHT22;3720;48.274;7.796;2023-07-22T05:58:55;16.70;99.90
7360;DHT22;3720;48.274;7.796;2023-07-22T06:01:26;16.80;99.90
7360;DHT22;3720;48.274;7.796;2023-07-22T06:03:59;17.00;99.90
7360;DHT22;3720;48.274;7.796;2023-07-22T06:06:31;17.20;99.90
7360;DHT22;3720;48.274;7.796;2023-07-22T06:09:03;17.30;99.90
7360;DHT22;3720;48.274;7.796;2023-07-22T06:11:35;17.50;99.90
7360;DHT22;3720;48.274;7.796;2023-07-22T06:14:08;17.40;99.90
7360;DHT22;3720;48.274;7.796;2023-07-22T06:16:40;17.50;99.90
7360;DHT22;3720;48.274;7.796;2023-07-22T06:19:12;17.70;99.90
7360;DHT22;3720;48.274;7.796;2023-07-22T06:21:44;17.80;99.90
7360;DHT22;3720;48.274;7.796;2023-07-22T06:24:16;17.90;99.90
7360;DHT22;3720;48.274;7.796;2023-07-22T06:26:48;17.90;99.90
7360;DHT22;3720;48.274;7.796;2023-07-22T06:29:21;18.00;99.90
7360;DHT22;3720;48.274;7.796;2023-07-22T06:31:53;18.10;99.90
7360;DHT22;3720;48.274;7.796;2023-07-22T06:34:25;18.30;99.90
7360;DHT22;3720;48.274;7.796;2023-07-22T06:36:57;18.30;99.90
7360;DHT22;3720;48.274;7.796;2023-07-22T06:39:29;18.40;99.90
7360;DHT22;3720;48.274;7.796;2023-07-22T06:42:00;18.60;99.90
7360;DHT22;3720;48.274;7.796;2023-07-22T06:44:34;18.60;99.90
7360;DHT22;3720;48.274;7.796;2023-07-22T06:47:06;18.70;99.90
7360;DHT22;3720;48.274;7.796;2023-07-22T06:49:38;18.70;99.90
7360;DHT22;3720;48.274;7.796;2023-07-22T06:52:11;18.90;99.90
7360;DHT22;3720;48.274;7.796;2023-07-22T06:54:43;19.00;99.90
7360;DHT22;3720;48.274;7.796;2023-07-22T06:57:16;19.00;99.90
7360;DHT22;3720;48.274;7.796;2023-07-22T06:59:50;19.00;99.90
7360;DHT22;3720;48.274;7.796;2023-07-22T07:02:22;18.90;99.90
7360;DHT22;3720;48.274;7.796;2023-07-22T07:04:55;18.90;99.90
7360;DHT22;3720;48.274;7.796;2023-07-22T07:07:27;19.00;99.90
7360;DHT22;3720;48.274;7.796;2023-07-22T07:09:59;19.10;99.90
7360;DHT22;3720;48.274;7.796;2023-07-22T07:12:31;19.40;99.90
7360;DHT22;3720;48.274;7.796;2023-07-22T07:15:05;19.60;99.90
7360;DHT22;3720;48.274;7.796;2023-07-22T07:17:38;19.70;99.90
7360;DHT22;3720;48.274;7.796;2023-07-22T07:20:10;19.90;99.90
7360;DHT22;3720;48.274;7.796;2023-07-22T07:22:42;20.00;99.90
7360;DHT22;3720;48.274;7.796;2023-07-22T07:25:14;20.10;99.90
7360;DHT22;3720;48.274;7.796;2023-07-22T07:27:46;20.20;99.90
7360;DHT22;3720;48.274;7.796;2023-07-22T07:30:19;20.30;99.90
7360;DHT22;3720;48.274;7.796;2023-07-22T07:32:51;20.40;99.90
7360;DHT22;3720;48.274;7.796;2023-07-22T07:35:23;20.50;99.90
7360;DHT22;3720;48.274;7.796;2023-07-22T07:37:55;20.50;99.90
7360;DHT22;3720;48.274;7.796;2023-07-22T07:40:27;20.60;99.90
7360;DHT22;3720;48.274;7.796;2023-07-22T07:42:59;20.60;99.90
7360;DHT22;3720;48.274;7.796;2023-07-22T07:45:32;20.70;99.90
7360;DHT22;3720;48.274;7.796;2023-07-22T07:48:05;20.80;99.90
7360;DHT22;3720;48.274;7.796;2023-07-22T07:50:36;20.80;99.90
7360;DHT22;3720;48.274;7.796;2023-07-22T07:53:08;20.90;99.90
7360;DHT22;3720;48.274;7.796;2023-07-22T07:55:40;20.90;99.90
7360;DHT22;3720;48.274;7.796;2023-07-22T07:58:12;20.90;99.90
7360;DHT22;3720;48.274;7.796;2023-07-22T08:00:46;21.10;99.90
7360;DHT22;3720;48.274;7.796;2023-07-22T08:03:18;21.10;99.90
7360;DHT22;3720;48.274;7.796;2023-07-22T08:05:50;21.10;99.90
7360;DHT22;3720;48.274;7.796;2023-07-22T08:08:22;21.10;99.90
7360;DHT22;3720;48.274;7.796;2023-07-22T08:10:58;21.20;99.90
7360;DHT22;3720;48.274;7.796;2023-07-22T08:13:30;21.30;99.90
7360;DHT22;3720;48.274;7.796;2023-07-22T08:16:07;21.30;99.90
7360;DHT22;3720;48.274;7.796;2023-07-22T08:18:39;21.40;99.90
7360;DHT22;3720;48.274;7.796;2023-07-22T08:21:11;21.50;99.90
7360;DHT22;3720;48.274;7.796;2023-07-22T08:23:43;21.60;99.90
7360;DHT22;3720;48.274;7.796;2023-07-22T08:26:17;21.70;99.90
7360;DHT22;3720;48.274;7.796;2023-07-22T08:28:51;21.70;99.90
7360;DHT22;3720;48.274;7.796;2023-07-22T08:31:24;21.70;99.90
7360;DHT22;3720;48.274;7.796;2023-07-22T08:33:56;21.70;99.90
7360;DHT22;3720;48.274;7.796;2023-07-22T08:36:28;21.70;99.90
7360;DHT22;3720;48.274;7.796;2023-07-22T08:39:00;21.80;99.90
7360;DHT22;3720;48.274;7.796;2023-07-22T08:41:32;22.00;99.90
7360;DHT22;3720;48.274;7.796;2023-07-22T08:44:05;22.30;99.90
7360;DHT22;3720;48.274;7.796;2023-07-22T08:46:42;22.40;99.90
7360;DHT22;3720;48.274;7.796;2023-07-22T08:49:15;22.60;99.90
7360;DHT22;3720;48.274;7.796;2023-07-22T08:51:47;22.60;99.90
7360;DHT22;3720;48.274;7.796;2023-07-22T08:54:21;22.60;99.90
7360;DHT22;3720;48.274;7.796;2023-07-22T08:56:54;22.60;99.90
7360;DHT22;3720;48.274;7.796;2023-07-22T08:59:26;22.60;99.90
7360;DHT22;3720;48.274;7.796;2023-07-22T09:02:00;22.60;99.90
7360;DHT22;3720;48.274;7.796;2023-07-22T09:04:32;22.60;99.90
7360;DHT22;3720;48.274;7.796;2023-07-22T09:07:05;22.60;99.90
7360;DHT22;3720;48.274;7.796;2023-07-22T09:09:38;22.70;99.90
7360;DHT22;3720;48.274;7.796;2023-07-22T09:12:10;22.80;99.90
7360;DHT22;3720;48.274;7.796;2023-07-22T09:14:43;23.10;99.90
7360;DHT22;3720;48.274;7.796;2023-07-22T09:17:17;23.60;99.90
7360;DHT22;3720;48.274;7.796;2023-07-22T09:19:52;24.00;99.90
7360;DHT22;3720;48.274;7.796;2023-07-22T09:22:27;24.30;99.90
7360;DHT22;3720;48.274;7.796;2023-07-22T09:25:12;24.30;99.90
7360;DHT22;3720;48.274;7.796;2023-07-22T09:27:46;24.30;99.90
7360;DHT22;3720;48.274;7.796;2023-07-22T09:30:23;24.10;99.90
7360;DHT22;3720;48.274;7.796;2023-07-22T09:32:58;24.10;99.90
7360;DHT22;3720;48.274;7.796;2023-07-22T09:35:42;24.20;99.90
7360;DHT22;3720;48.274;7.796;2023-07-22T09:38:22;24.20;99.90
7360;DHT22;3720;48.274;7.796;2023-07-22T09:40:54;24.00;99.90
7360;DHT22;3720;48.274;7.796;2023-07-22T09:43:26;24.00;99.90
7360;DHT22;3720;48.274;7.796;2023-07-22T09:46:06;24.20;99.90
7360;DHT22;3720;48.274;7.796;2023-07-22T09:48:44;24.40;99.90
7360;DHT22;3720;48.274;7.796;2023-07-22T09:51:16;24.70;99.90
7360;DHT22;3720;48.274;7.796;2023-07-22T09:53:59;24.70;99.90
7360;DHT22;3720;48.274;7.796;2023-07-22T09:56:43;24.60;99.90
7360;DHT22;3720;48.274;7.796;2023-07-22T09:59:18;24.40;99.90
7360;DHT22;3720;48.274;7.796;2023-07-22T10:01:50;24.30;99.90
7360;DHT22;3720;48.274;7.796;2023-07-22T10:04:25;24.20;99.90
7360;DHT22;3720;48.274;7.796;2023-07-22T10:06:59;24.10;99.90
7360;DHT22;3720;48.274;7.796;2023-07-22T10:09:32;24.10;99.90
7360;DHT22;3720;48.274;7.796;2023-07-22T10:12:06;24.10;99.90
7360;DHT22;3720;48.274;7.796;2023-07-22T10:14:39;24.20;99.90
7360;DHT22;3720;48.274;7.796;2023-07-22T10:17:11;24.30;99.90
7360;DHT22;3720;48.274;7.796;2023-07-22T10:19:46;24.40;99.90
7360;DHT22;3720;48.274;7.796;2023-07-22T10:22:18;24.70;99.90
7360;DHT22;3720;48.274;7.796;2023-07-22T10:24:50;25.00;99.90
7360;DHT22;3720;48.274;7.796;2023-07-22T10:27:24;25.10;99.90
7360;DHT22;3720;48.274;7.796;2023-07-22T10:29:59;25.10;99.90
7360;DHT22;3720;48.274;7.796;2023-07-22T10:32:33;24.90;99.90
7360;DHT22;3720;48.274;7.796;2023-07-22T10:35:11;24.90;99.90
7360;DHT22;3720;48.274;7.796;2023-07-22T10:37:45;25.00;99.90
7360;DHT22;3720;48.274;7.796;2023-07-22T10:40:18;25.30;99.90
7360;DHT22;3720;48.274;7.796;2023-07-22T10:42:52;25.40;99.90
7360;DHT22;3720;48.274;7.796;2023-07-22T10:45:26;25.40;99.90
7360;DHT22;3720;48.274;7.796;2023-07-22T10:48:05;25.30;99.90
7360;DHT22;3720;48.274;7.796;2023-07-22T10:50:43;25.30;99.90
7360;DHT22;3720;48.274;7.796;2023-07-22T10:53:29;25.20;99.90
7360;DHT22;3720;48.274;7.796;2023-07-22T10:56:06;25.10;99.90
7360;DHT22;3720;48.274;7.796;2023-07-22T10:58:59;25.00;99.90
7360;DHT22;3720;48.274;7.796;2023-07-22T11:01:34;25.00;99.90
7360;DHT22;3720;48.274;7.796;2023-07-22T11:04:08;25.20;99.90
7360;DHT22;3720;48.274;7.796;2023-07-22T11:06:55;25.50;99.90
7360;DHT22;3720;48.274;7.796;2023-07-22T11:09:39;25.80;99.90
7360;DHT22;3720;48.274;7.796;2023-07-22T11:12:14;26.10;99.90
7360;DHT22;3720;48.274;7.796;2023-07-22T11:14:48;26.40;99.90
7360;DHT22;3720;48.274;7.796;2023-07-22T11:17:28;26.70;99.90
7360;DHT22;3720;48.274;7.796;2023-07-22T11:20:01;26.80;99.90
7360;DHT22;3720;48.274;7.796;2023-07-22T11:22:35;27.00;99.90
7360;DHT22;3720;48.274;7.796;2023-07-22T11:25:07;27.10;98.50
7360;DHT22;3720;48.274;7.796;2023-07-22T11:27:40;27.10;98.90
7360;DHT22;3720;48.274;7.796;2023-07-22T11:30:12;27.20;97.80
7360;DHT22;3720;48.274;7.796;2023-07-22T11:32:45;27.40;99.20
7360;DHT22;3720;48.274;7.796;2023-07-22T11:35:16;27.50;98.80
7360;DHT22;3720;48.274;7.796;2023-07-22T11:38:00;27.40;99.60
7360;DHT22;3720;48.274;7.796;2023-07-22T11:40:35;27.30;98.00
7360;DHT22;3720;48.274;7.796;2023-07-22T11:43:07;27.30;99.00
7360;DHT22;3720;48.274;7.796;2023-07-22T11:45:39;27.60;99.20
7360;DHT22;3720;48.274;7.796;2023-07-22T11:48:12;27.80;96.60
7360;DHT22;3720;48.274;7.796;2023-07-22T11:50:44;28.10;96.20
7360;DHT22;3720;48.274;7.796;2023-07-22T11:53:18;28.10;96.30
7360;DHT22;3720;48.274;7.796;2023-07-22T11:55:51;27.70;94.10
7360;DHT22;3720;48.274;7.796;2023-07-22T11:58:24;27.30;93.80
7360;DHT22;3720;48.274;7.796;2023-07-22T12:01:04;27.30;94.60
7360;DHT22;3720;48.274;7.796;2023-07-22T12:03:36;27.60;94.80
7360;DHT22;3720;48.274;7.796;2023-07-22T12:06:08;28.00;96.90
7360;DHT22;3720;48.274;7.796;2023-07-22T12:08:45;28.50;97.20
7360;DHT22;3720;48.274;7.796;2023-07-22T12:11:18;28.60;90.10
7360;DHT22;3720;48.274;7.796;2023-07-22T12:14:06;28.60;85.50
7360;DHT22;3720;48.274;7.796;2023-07-22T12:16:41;28.60;86.40
7360;DHT22;3720;48.274;7.796;2023-07-22T12:19:13;28.70;90.50
7360;DHT22;3720;48.274;7.796;2023-07-22T12:21:45;28.80;83.40
7360;DHT22;3720;48.274;7.796;2023-07-22T12:24:18;28.80;86.90
7360;DHT22;3720;48.274;7.796;2023-07-22T12:26:50;28.40;82.50
7360;DHT22;3720;48.274;7.796;2023-07-22T12:29:22;28.20;84.40
7360;DHT22;3720;48.274;7.796;2023-07-22T12:31:54;28.20;82.00
7360;DHT22;3720;48.274;7.796;2023-07-22T12:34:26;28.20;85.10
7360;DHT22;3720;48.274;7.796;2023-07-22T12:36:58;28.20;86.40
7360;DHT22;3720;48.274;7.796;2023-07-22T12:39:31;28.40;79.20
7360;DHT22;3720;48.274;7.796;2023-07-22T12:42:04;28.90;83.10
7360;DHT22;3720;48.274;7.796;2023-07-22T12:44:36;29.40;79.90
7360;DHT22;3720;48.274;7.796;2023-07-22T12:47:08;29.60;74.90
7360;DHT22;3720;48.274;7.796;2023-07-22T12:49:40;29.30;73.80
7360;DHT22;3720;48.274;7.796;2023-07-22T12:52:12;28.90;77.10
7360;DHT22;3720;48.274;7.796;2023-07-22T12:54:46;28.90;74.70
7360;DHT22;3720;48.274;7.796;2023-07-22T12:57:17;29.10;77.00
7360;DHT22;3720;48.274;7.796;2023-07-22T12:59:49;29.40;77.40
7360;DHT22;3720;48.274;7.796;2023-07-22T13:02:21;29.30;71.60
7360;DHT22;3720;48.274;7.796;2023-07-22T13:04:55;29.20;70.90
7360;DHT22;3720;48.274;7.796;2023-07-22T13:07:27;28.90;70.10
7360;DHT22;3720;48.274;7.796;2023-07-22T13:10:00;28.70;72.70
7360;DHT22;3720;48.274;7.796;2023-07-22T13:12:33;28.60;69.60
7360;DHT22;3720;48.274;7.796;2023-07-22T13:15:05;28.20;69.60
7360;DHT22;3720;48.274;7.796;2023-07-22T13:17:37;28.00;70.90
7360;DHT22;3720;48.274;7.796;2023-07-22T13:20:10;27.90;71.10
7360;DHT22;3720;48.274;7.796;2023-07-22T13:22:43;28.20;70.80
7360;DHT22;3720;48.274;7.796;2023-07-22T13:25:16;28.70;72.60
7360;DHT22;3720;48.274;7.796;2023-07-22T13:27:47;29.30;70.90
7360;DHT22;3720;48.274;7.796;2023-07-22T13:30:19;29.60;70.20
7360;DHT22;3720;48.274;7.796;2023-07-22T13:32:51;29.60;65.10
7360;DHT22;3720;48.274;7.796;2023-07-22T13:35:26;29.70;64.00
7360;DHT22;3720;48.274;7.796;2023-07-22T13:37:58;29.30;68.00
7360;DHT22;3720;48.274;7.796;2023-07-22T13:40:31;29.40;65.00
7360;DHT22;3720;48.274;7.796;2023-07-22T13:43:03;29.60;63.90
7360;DHT22;3720;48.274;7.796;2023-07-22T13:45:35;29.80;65.80
7360;DHT22;3720;48.274;7.796;2023-07-22T13:48:07;29.90;63.20
7360;DHT22;3720;48.274;7.796;2023-07-22T13:50:41;29.60;61.50
7360;DHT22;3720;48.274;7.796;2023-07-22T13:53:13;29.30;63.40
7360;DHT22;3720;48.274;7.796;2023-07-22T13:55:47;29.20;63.10
7360;DHT22;3720;48.274;7.796;2023-07-22T13:58:20;29.30;62.60
7360;DHT22;3720;48.274;7.796;2023-07-22T14:00:52;29.40;64.90
7360;DHT22;3720;48.274;7.796;2023-07-22T14:03:24;29.40;62.50
7360;DHT22;3720;48.274;7.796;2023-07-22T14:05:56;29.50;67.10
7360;DHT22;3720;48.274;7.796;2023-07-22T14:08:28;29.40;65.00
7360;DHT22;3720;48.274;7.796;2023-07-22T14:11:01;29.50;64.70
7360;DHT22;3720;48.274;7.796;2023-07-22T14:13:33;29.60;65.40
7360;DHT22;3720;48.274;7.796;2023-07-22T14:16:05;29.50;65.10
7360;DHT22;3720;48.274;7.796;2023-07-22T14:18:37;29.60;66.70
7360;DHT22;3720;48.274;7.796;2023-07-22T14:21:09;29.60;64.60
7360;DHT22;3720;48.274;7.796;2023-07-22T14:23:42;29.40;63.70
7360;DHT22;3720;48.274;7.796;2023-07-22T14:26:16;29.50;63.80
7360;DHT22;3720;48.274;7.796;2023-07-22T14:28:47;29.40;65.90
7360;DHT22;3720;48.274;7.796;2023-07-22T14:31:19;29.40;66.10
7360;DHT22;3720;48.274;7.796;2023-07-22T14:33:52;29.10;65.00
7360;DHT22;3720;48.274;7.796;2023-07-22T14:36:24;28.90;68.90
7360;DHT22;3720;48.274;7.796;2023-07-22T14:38:57;28.90;69.60
7360;DHT22;3720;48.274;7.796;2023-07-22T14:41:31;29.00;69.60
7360;DHT22;3720;48.274;7.796;2023-07-22T14:44:03;29.20;67.80
7360;DHT22;3720;48.274;7.796;2023-07-22T14:46:35;29.20;65.10
7360;DHT22;3720;48.274;7.796;2023-07-22T14:49:07;29.00;65.30
7360;DHT22;3720;48.274;7.796;2023-07-22T14:51:40;28.90;67.00
7360;DHT22;3720;48.274;7.796;2023-07-22T14:54:12;28.80;67.60
7360;DHT22;3720;48.274;7.796;2023-07-22T14:56:45;28.60;66.10
7360;DHT22;3720;48.274;7.796;2023-07-22T14:59:17;28.50;67.90
7360;DHT22;3720;48.274;7.796;2023-07-22T15:01:49;28.60;70.00
7360;DHT22;3720;48.274;7.796;2023-07-22T15:04:21;28.70;66.00
7360;DHT22;3720;48.274;7.796;2023-07-22T15:06:55;28.70;65.30
7360;DHT22;3720;48.274;7.796;2023-07-22T15:09:27;29.00;63.40
7360;DHT22;3720;48.274;7.796;2023-07-22T15:12:01;29.20;61.50
7360;DHT22;3720;48.274;7.796;2023-07-22T15:14:33;29.50;61.50
7360;DHT22;3720;48.274;7.796;2023-07-22T15:17:05;29.70;60.70
7360;DHT22;3720;48.274;7.796;2023-07-22T15:19:38;29.90;62.10
7360;DHT22;3720;48.274;7.796;2023-07-22T15:22:10;29.90;59.70
7360;DHT22;3720;48.274;7.796;2023-07-22T15:24:42;29.60;60.20
7360;DHT22;3720;48.274;7.796;2023-07-22T15:27:16;29.50;61.30
7360;DHT22;3720;48.274;7.796;2023-07-22T15:29:48;29.30;58.80
7360;DHT22;3720;48.274;7.796;2023-07-22T15:32:20;29.20;60.30
7360;DHT22;3720;48.274;7.796;2023-07-22T15:34:52;29.20;60.10
7360;DHT22;3720;48.274;7.796;2023-07-22T15:37:24;29.20;59.40
7360;DHT22;3720;48.274;7.796;2023-07-22T15:39:56;29.00;59.80
7360;DHT22;3720;48.274;7.796;2023-07-22T15:42:29;28.80;59.00
7360;DHT22;3720;48.274;7.796;2023-07-22T15:45:01;28.70;62.10
7360;DHT22;3720;48.274;7.796;2023-07-22T15:47:34;28.60;62.50
7360;DHT22;3720;48.274;7.796;2023-07-22T15:50:07;28.60;62.40
7360;DHT22;3720;48.274;7.796;2023-07-22T15:52:39;28.70;63.00
7360;DHT22;3720;48.274;7.796;2023-07-22T15:55:11;28.60;61.40
7360;DHT22;3720;48.274;7.796;2023-07-22T15:57:47;28.60;61.90
7360;DHT22;3720;48.274;7.796;2023-07-22T16:00:19;28.70;64.20
7360;DHT22;3720;48.274;7.796;2023-07-22T16:02:52;28.80;60.70
7360;DHT22;3720;48.274;7.796;2023-07-22T16:05:24;28.70;59.60
7360;DHT22;3720;48.274;7.796;2023-07-22T16:07:56;28.80;60.10
7360;DHT22;3720;48.274;7.796;2023-07-22T16:10:28;28.80;62.20
7360;DHT22;3720;48.274;7.796;2023-07-22T16:13:05;29.00;61.00
7360;DHT22;3720;48.274;7.796;2023-07-22T16:15:37;29.10;63.30
7360;DHT22;3720;48.274;7.796;2023-07-22T16:18:09;29.30;59.60
7360;DHT22;3720;48.274;7.796;2023-07-22T16:20:40;29.20;60.70
7360;DHT22;3720;48.274;7.796;2023-07-22T16:23:12;29.20;60.40
7360;DHT22;3720;48.274;7.796;2023-07-22T16:25:45;29.20;61.70
7360;DHT22;3720;48.274;7.796;2023-07-22T16:28:18;29.10;60.30
7360;DHT22;3720;48.274;7.796;2023-07-22T16:30:50;29.10;60.80
7360;DHT22;3720;48.274;7.796;2023-07-22T16:33:23;29.00;59.20
7360;DHT22;3720;48.274;7.796;2023-07-22T16:35:55;28.90;60.90
7360;DHT22;3720;48.274;7.796;2023-07-22T16:38:27;28.90;61.50